Terminal Aerodrome Forecast
Issued by NWS

Home | Current Version | Previous Version | Text Only | Print | Product List | Glossary On
Versions: 1 2 3 4 5 6 7 8 9 10 11 12 13 14 15 16 17 18 19 20 21 22 23 24 25 26 27 28 29
000
FTUS41 KCTP 171142
TAFJST
TAF
KJST 171142Z 1712/1812 15011KT P6SM BKN250
     FM171500 15011G19KT P6SM FEW035 BKN250
     FM172230 15009KT P6SM SCT250
     FM180800 15009KT P6SM BKN035=

USA.gov is the U.S. government's official web portal to all federal, state and local government web resources and services.